Time;durP1;ratioP1;P1;durP2;ratioP2;P2;SDS_P1;SDS_P2;PMS_P1;PMS_P2;Temp;Humidity;BMP_temperature;BMP_pressure;BME280_temperature;BME280_humidity;BME280_pressure;Samples;Min_cycle;Max_cycle;Signal;HPM_P1;HPM_P2
2021/01/19 00:00:22;;;;;;;16.35;9.68;;;3.50;99.90;;;;;;5031961;28;20267;-50
2021/01/19 00:02:49;;;;;;;16.17;10.38;;;3.40;99.90;;;;;;5031744;28;20180;-55
2021/01/19 00:05:17;;;;;;;10.52;8.52;;;3.40;99.90;;;;;;5031740;28;20193;-51
2021/01/19 00:07:45;;;;;;;12.38;10.00;;;3.50;99.90;;;;;;5031730;28;20588;-49
2021/01/19 00:10:12;;;;;;;15.65;11.95;;;3.50;99.90;;;;;;5031404;28;20205;-52
2021/01/19 00:12:39;;;;;;;27.88;14.35;;;3.40;99.90;;;;;;5030768;28;20257;-48
2021/01/19 00:15:08;;;;;;;15.27;11.45;;;3.40;99.90;;;;;;5031951;28;20192;-49
2021/01/19 00:17:35;;;;;;;19.77;13.77;;;3.40;99.90;;;;;;5031596;28;20174;-50
2021/01/19 00:20:04;;;;;;;17.33;10.50;;;3.40;99.90;;;;;;5031600;28;20205;-51
2021/01/19 00:22:33;;;;;;;18.75;10.38;;;3.40;99.90;;;;;;5031423;28;20181;-50
2021/01/19 00:25:00;;;;;;;12.90;9.23;;;3.40;99.90;;;;;;5031376;28;20216;-56
2021/01/19 00:27:27;;;;;;;24.95;9.23;;;3.40;99.90;;;;;;5013782;28;20201;-51
2021/01/19 00:29:54;;;;;;;19.50;12.27;;;3.40;99.90;;;;;;5031422;28;20264;-55
2021/01/19 00:32:21;;;;;;;26.98;15.10;;;3.30;99.90;;;;;;5031218;28;20220;-52
2021/01/19 00:49:36;;;;;;;19.52;7.68;;;3.20;99.90;;;;;;5035544;28;20243;-47
2021/01/19 00:52:04;;;;;;;12.05;10.43;;;3.20;99.90;;;;;;5034220;28;20672;-49
2021/01/19 00:54:31;;;;;;;17.98;9.30;;;3.20;99.90;;;;;;5017446;28;20572;-50
2021/01/19 00:56:58;;;;;;;18.00;12.77;;;3.30;99.90;;;;;;5035412;28;20545;-55
2021/01/19 00:59:25;;;;;;;18.40;10.82;;;3.20;99.90;;;;;;5035430;28;20209;-49
2021/01/19 01:01:53;;;;;;;25.08;11.35;;;3.20;99.90;;;;;;5035086;28;20682;-50
2021/01/19 02:05:22;;;;;;;13.40;10.25;;;3.20;99.90;;;;;;4975620;28;20187;-47
2021/01/19 02:11:50;;;;;;;16.15;8.07;;;3.20;99.90;;;;;;4975187;28;20214;-48
2021/01/19 02:27:12;;;;;;;10.02;9.00;;;3.20;99.90;;;;;;4975061;28;20266;-51
2021/01/19 02:30:07;;;;;;;12.60;10.88;;;3.20;99.90;;;;;;4974491;28;20293;-48
2021/01/19 02:32:44;;;;;;;9.18;7.60;;;3.20;99.90;;;;;;4955251;28;20190;-50
2021/01/19 02:35:15;;;;;;;15.18;8.57;;;3.20;99.90;;;;;;4955571;29;20183;-45
2021/01/19 04:18:17;;;;;;;8.13;6.00;;;3.20;99.90;;;;;;5011585;28;20532;-61
2021/01/19 04:20:45;;;;;;;13.40;7.88;;;3.30;99.90;;;;;;5011663;28;20210;-57
2021/01/19 04:23:14;;;;;;;13.57;8.63;;;3.40;99.90;;;;;;5012670;28;20538;-57
2021/01/19 04:25:41;;;;;;;8.70;6.53;;;3.40;99.90;;;;;;5011960;28;20197;-59
2021/01/19 04:28:08;;;;;;;8.82;7.93;;;3.40;99.90;;;;;;5012045;28;20619;-57
2021/01/19 04:30:36;;;;;;;12.32;7.18;;;3.40;99.90;;;;;;5012151;28;20210;-59
2021/01/19 04:33:04;;;;;;;11.45;7.32;;;3.30;99.90;;;;;;5012247;28;20182;-58
2021/01/19 04:35:32;;;;;;;15.18;7.15;;;3.30;99.90;;;;;;5012302;28;20229;-61
2021/01/19 04:37:59;;;;;;;14.30;8.05;;;3.30;99.90;;;;;;5011957;28;20178;-58
2021/01/19 04:40:27;;;;;;;8.35;5.90;;;3.30;99.90;;;;;;5012720;28;20205;-59
2021/01/19 04:42:54;;;;;;;12.10;7.93;;;3.30;99.90;;;;;;5012534;28;20587;-60
2021/01/19 04:45:22;;;;;;;21.92;7.65;;;3.30;99.90;;;;;;5012696;28;20615;-57
2021/01/19 04:47:52;;;;;;;8.55;6.55;;;3.30;99.90;;;;;;5013633;28;20205;-59
2021/01/19 04:50:20;;;;;;;7.88;7.10;;;3.40;99.90;;;;;;5015844;28;20304;-60
2021/01/19 04:52:48;;;;;;;6.75;6.07;;;3.40;99.90;;;;;;5030751;28;20220;-57
2021/01/19 04:55:19;;;;;;;10.20;6.53;;;3.30;99.90;;;;;;5030759;28;20197;-57
2021/01/19 04:57:56;;;;;;;12.93;7.55;;;3.40;99.90;;;;;;5030719;28;20196;-53
2021/01/19 05:00:28;;;;;;;9.63;7.53;;;3.30;99.90;;;;;;5030717;28;20209;-57
2021/01/19 05:03:12;;;;;;;13.07;6.25;;;3.30;99.90;;;;;;5030600;28;20197;-56
2021/01/19 05:06:01;;;;;;;10.43;6.88;;;3.30;99.90;;;;;;5030761;28;20440;-59
2021/01/19 05:08:58;;;;;;;9.10;6.45;;;3.30;99.90;;;;;;5030777;28;20296;-60
2021/01/19 05:11:28;;;;;;;11.23;5.95;;;3.30;99.90;;;;;;5030187;28;20252;-57
2021/01/19 05:14:01;;;;;;;6.97;3.97;;;3.30;99.90;;;;;;5030560;28;20711;-56
2021/01/19 05:16:32;;;;;;;12.88;6.22;;;3.30;99.90;;;;;;5030626;28;20256;-58
2021/01/19 05:19:00;;;;;;;6.88;6.18;;;3.30;99.90;;;;;;5030809;28;20658;-55
2021/01/19 05:21:27;;;;;;;7.05;5.85;;;3.30;99.90;;;;;;5030073;28;20752;-57
2021/01/19 05:23:56;;;;;;;9.82;7.97;;;3.30;99.90;;;;;;5030961;28;20193;-59
2021/01/19 05:26:24;;;;;;;20.42;8.00;;;3.30;99.90;;;;;;5030646;28;20181;-53
2021/01/19 05:28:52;;;;;;;20.77;9.32;;;3.30;99.90;;;;;;5030561;28;20209;-55
2021/01/19 05:31:25;;;;;;;12.43;6.90;;;3.30;99.90;;;;;;5032814;28;20240;-54
2021/01/19 05:33:57;;;;;;;8.60;7.68;;;3.20;99.90;;;;;;5034080;28;20224;-56
2021/01/19 05:36:26;;;;;;;12.27;8.85;;;3.30;99.90;;;;;;5033988;28;20212;-60
2021/01/19 05:38:55;;;;;;;7.00;5.53;;;3.20;99.90;;;;;;5033830;28;20194;-54
2021/01/19 05:41:31;;;;;;;14.65;7.10;;;3.20;99.90;;;;;;5033737;28;20504;-56
2021/01/19 05:44:10;;;;;;;10.93;6.65;;;3.20;99.90;;;;;;5033924;28;20201;-60
2021/01/19 05:46:42;;;;;;;11.25;8.48;;;3.20;99.90;;;;;;5033709;28;20181;-56
2021/01/19 05:49:14;;;;;;;11.82;7.60;;;3.20;99.90;;;;;;5034312;28;20209;-60
2021/01/19 05:51:46;;;;;;;8.55;6.95;;;3.20;99.90;;;;;;5035012;28;20212;-60
2021/01/19 05:54:32;;;;;;;10.68;6.55;;;3.20;99.90;;;;;;5038161;28;20178;-58
2021/01/19 05:57:05;;;;;;;13.48;8.00;;;3.20;99.90;;;;;;5040386;28;20189;-57
2021/01/19 05:59:35;;;;;;;10.52;7.97;;;3.10;99.90;;;;;;5039678;28;20619;-57
2021/01/19 06:02:05;;;;;;;8.27;7.43;;;3.10;99.90;;;;;;5034556;28;20192;-58
2021/01/19 06:04:43;;;;;;;8.32;7.10;;;3.10;99.90;;;;;;5052354;28;20200;-53
2021/01/19 06:07:12;;;;;;;11.35;6.80;;;3.20;99.90;;;;;;5036355;28;20212;-56
2021/01/19 06:09:41;;;;;;;8.63;6.40;;;3.20;99.90;;;;;;5054951;28;20214;-56
2021/01/19 06:12:08;;;;;;;12.50;8.88;;;3.10;99.90;;;;;;5054610;28;20239;-57
2021/01/19 06:14:37;;;;;;;9.88;6.72;;;3.20;99.90;;;;;;5055780;28;20188;-58
2021/01/19 06:17:09;;;;;;;8.82;7.93;;;3.10;99.90;;;;;;5035585;28;20192;-55
2021/01/19 06:19:40;;;;;;;5.05;4.63;;;3.10;99.90;;;;;;5053813;28;20184;-54
2021/01/19 06:22:10;;;;;;;9.65;6.20;;;3.10;99.90;;;;;;5054332;28;20177;-59
2021/01/19 06:24:40;;;;;;;8.10;5.35;;;3.10;99.90;;;;;;5056195;28;20688;-60
2021/01/19 06:27:08;;;;;;;20.55;5.65;;;3.10;99.90;;;;;;5040702;28;20650;-57
2021/01/19 06:29:36;;;;;;;11.05;7.38;;;3.10;99.90;;;;;;5040782;28;20177;-58
2021/01/19 06:32:07;;;;;;;12.43;6.68;;;3.10;99.90;;;;;;5021837;28;20205;-59
2021/01/19 06:34:38;;;;;;;8.75;5.38;;;3.10;99.90;;;;;;5039698;28;20192;-58
2021/01/19 06:37:08;;;;;;;5.57;4.75;;;3.10;99.90;;;;;;5021153;28;20194;-55
2021/01/19 06:39:40;;;;;;;10.68;7.35;;;3.20;99.90;;;;;;5039621;28;20196;-61
2021/01/19 06:42:13;;;;;;;10.70;6.18;;;3.20;99.90;;;;;;5036183;28;20272;-58
2021/01/19 06:44:42;;;;;;;5.78;4.80;;;3.10;99.90;;;;;;5033358;28;20206;-59
2021/01/19 06:47:10;;;;;;;4.70;4.32;;;3.10;99.90;;;;;;5035642;28;20204;-57
2021/01/19 06:49:55;;;;;;;5.90;3.85;;;3.10;99.90;;;;;;5038269;28;20189;-62
2021/01/19 06:52:22;;;;;;;4.47;4.07;;;3.10;99.90;;;;;;5037839;28;20185;-60
2021/01/19 06:55:05;;;;;;;7.40;5.95;;;3.10;99.90;;;;;;5034138;28;20239;-57
2021/01/19 06:57:39;;;;;;;8.98;3.30;;;3.10;99.90;;;;;;5032493;28;20181;-60
2021/01/19 07:00:09;;;;;;;7.68;5.10;;;3.10;99.90;;;;;;5030621;28;20795;-52
2021/01/19 07:02:38;;;;;;;7.05;4.43;;;3.00;99.90;;;;;;5031829;28;20185;-58
2021/01/19 07:05:11;;;;;;;6.68;4.65;;;3.00;99.90;;;;;;5031594;28;20182;-58
2021/01/19 07:07:46;;;;;;;3.55;2.67;;;3.00;99.90;;;;;;5031967;28;20288;-55
2021/01/19 07:10:19;;;;;;;5.40;4.40;;;3.00;99.90;;;;;;5031755;28;20263;-59
2021/01/19 07:13:01;;;;;;;15.77;5.80;;;3.00;99.90;;;;;;5031656;28;20182;-59
2021/01/19 07:16:07;;;;;;;8.77;6.07;;;2.90;99.90;;;;;;5031206;28;20174;-57
2021/01/19 07:18:50;;;;;;;3.55;2.70;;;3.00;99.90;;;;;;5031556;28;20739;-54
2021/01/19 07:21:18;;;;;;;7.90;4.07;;;3.00;99.90;;;;;;5031270;28;20603;-60
2021/01/19 07:24:17;;;;;;;6.22;3.63;;;2.90;99.90;;;;;;5031834;28;20196;-59
2021/01/19 07:26:46;;;;;;;5.38;4.88;;;2.90;99.90;;;;;;5031639;28;20276;-56
2021/01/19 07:29:17;;;;;;;11.07;4.57;;;3.00;99.90;;;;;;5031636;28;20202;-58
2021/01/19 07:31:45;;;;;;;6.45;5.57;;;3.00;99.90;;;;;;5033016;28;20209;-54
2021/01/19 07:34:15;;;;;;;4.25;3.03;;;3.00;99.90;;;;;;5031809;28;20190;-56
2021/01/19 07:36:52;;;;;;;5.90;4.93;;;3.00;99.90;;;;;;5031771;28;20185;-57
2021/01/19 07:39:20;;;;;;;5.20;3.55;;;3.00;99.90;;;;;;5031673;28;20392;-57
2021/01/19 07:41:49;;;;;;;6.32;3.78;;;3.00;99.90;;;;;;5030938;28;20213;-57
2021/01/19 07:44:21;;;;;;;8.30;4.68;;;3.00;99.90;;;;;;5022946;28;20209;-56
2021/01/19 07:47:09;;;;;;;6.38;4.35;;;3.10;99.90;;;;;;5016462;28;20197;-60
2021/01/19 07:49:37;;;;;;;5.45;4.93;;;3.10;99.90;;;;;;5032100;28;20197;-55
2021/01/19 07:52:14;;;;;;;6.40;3.92;;;3.10;99.90;;;;;;5031050;28;20236;-60
2021/01/19 07:54:42;;;;;;;6.75;4.05;;;3.10;99.90;;;;;;5013018;28;20280;-59
2021/01/19 07:57:12;;;;;;;6.65;4.55;;;3.20;99.90;;;;;;5031064;28;20208;-62
2021/01/19 07:59:41;;;;;;;4.85;4.10;;;3.20;99.90;;;;;;5031179;28;20188;-60
2021/01/19 08:02:08;;;;;;;4.70;4.30;;;3.20;99.90;;;;;;5030582;28;20185;-61
2021/01/19 08:04:37;;;;;;;13.10;4.82;;;3.20;99.90;;;;;;5013211;28;20215;-56
2021/01/19 08:07:13;;;;;;;4.90;3.17;;;3.20;99.90;;;;;;5031424;28;20269;-57
2021/01/19 08:09:43;;;;;;;5.45;4.85;;;3.10;99.90;;;;;;5031906;28;20202;-57
2021/01/19 08:12:14;;;;;;;3.95;2.92;;;3.20;99.90;;;;;;5031101;28;20634;-60
2021/01/19 08:14:43;;;;;;;4.20;3.80;;;3.20;99.90;;;;;;5031189;28;20186;-58
2021/01/19 08:17:11;;;;;;;4.43;3.83;;;3.30;99.90;;;;;;5030930;28;20178;-59
2021/01/19 08:19:40;;;;;;;9.68;6.15;;;3.30;99.90;;;;;;5031223;28;20646;-53
2021/01/19 08:22:10;;;;;;;5.70;4.80;;;3.30;99.90;;;;;;5031261;28;20185;-54
2021/01/19 08:24:41;;;;;;;6.55;4.85;;;3.40;99.90;;;;;;5030936;28;20208;-53
2021/01/19 08:27:08;;;;;;;6.85;3.38;;;3.40;99.90;;;;;;5031266;28;20243;-57
2021/01/19 08:29:38;;;;;;;8.65;5.15;;;3.40;99.90;;;;;;5031223;28;20181;-55
2021/01/19 08:32:08;;;;;;;6.93;5.00;;;3.40;99.90;;;;;;5031112;28;20264;-58
2021/01/19 08:34:39;;;;;;;6.47;5.13;;;3.40;99.90;;;;;;5031069;28;20189;-59
2021/01/19 08:37:07;;;;;;;5.90;4.45;;;3.50;99.90;;;;;;5031323;28;20248;-56
2021/01/19 08:39:35;;;;;;;4.28;3.90;;;3.50;99.90;;;;;;5031377;28;20189;-58
2021/01/19 08:42:19;;;;;;;10.40;5.30;;;3.50;99.90;;;;;;5031062;28;20193;-55
2021/01/19 08:44:57;;;;;;;9.90;4.55;;;3.60;99.90;;;;;;5031437;28;20740;-59
2021/01/19 08:47:26;;;;;;;7.72;4.32;;;3.60;99.90;;;;;;5031046;28;20741;-54
2021/01/19 08:50:15;;;;;;;6.57;5.80;;;3.60;99.90;;;;;;5013653;28;20217;-57
2021/01/19 08:52:43;;;;;;;4.60;3.92;;;3.70;99.90;;;;;;5031159;28;20522;-57
2021/01/19 08:55:20;;;;;;;5.53;3.42;;;3.70;99.90;;;;;;5019527;28;20182;-58
2021/01/19 08:57:53;;;;;;;12.70;4.57;;;3.70;99.90;;;;;;5013879;28;20182;-57
2021/01/19 09:00:28;;;;;;;6.03;4.90;;;3.80;99.90;;;;;;5025686;28;20213;-56
2021/01/19 09:02:57;;;;;;;7.18;5.78;;;3.80;99.90;;;;;;5031011;28;20185;-57
2021/01/19 09:05:26;;;;;;;7.75;5.57;;;3.80;99.90;;;;;;5029292;28;20181;-56
2021/01/19 09:07:54;;;;;;;6.32;4.18;;;3.80;99.90;;;;;;5032159;28;20684;-60
2021/01/19 09:10:24;;;;;;;6.03;4.47;;;3.80;99.90;;;;;;5035208;28;20213;-55
2021/01/19 09:12:52;;;;;;;4.65;3.05;;;3.90;99.90;;;;;;5034647;28;20219;-58
2021/01/19 09:15:20;;;;;;;17.77;5.65;;;4.00;99.90;;;;;;5035170;28;20243;-60
2021/01/19 09:17:52;;;;;;;8.85;4.15;;;4.00;99.90;;;;;;5036121;28;20560;-58
2021/01/19 09:20:20;;;;;;;7.15;3.35;;;4.00;99.90;;;;;;5034410;28;20275;-57
2021/01/19 09:22:47;;;;;;;8.30;4.10;;;4.00;99.90;;;;;;5037039;28;20600;-54
2021/01/19 09:25:14;;;;;;;4.00;3.65;;;4.00;99.90;;;;;;5034947;28;20178;-58
2021/01/19 09:27:41;;;;;;;5.15;3.35;;;4.00;99.90;;;;;;5016673;28;20217;-53
2021/01/19 09:30:11;;;;;;;4.15;2.95;;;3.90;99.90;;;;;;5034486;28;20210;-56
2021/01/19 09:32:39;;;;;;;7.90;4.70;;;4.00;99.90;;;;;;5033925;28;20185;-53
2021/01/19 09:35:09;;;;;;;5.68;4.47;;;4.00;99.90;;;;;;5034757;28;20600;-56
2021/01/19 09:37:37;;;;;;;5.22;4.22;;;3.90;99.90;;;;;;5035156;28;20543;-55
2021/01/19 09:40:05;;;;;;;5.85;5.10;;;4.00;99.90;;;;;;5034746;28;20209;-54
2021/01/19 09:42:36;;;;;;;5.28;4.22;;;4.00;99.90;;;;;;5016866;28;20204;-56
2021/01/19 09:45:04;;;;;;;4.75;3.28;;;4.10;99.90;;;;;;5112481;22;20238;-48
2021/01/19 09:47:31;;;;;;;3.90;3.50;;;4.10;99.90;;;;;;5074737;28;20183;-54
2021/01/19 09:49:59;;;;;;;7.22;3.83;;;4.00;99.90;;;;;;5074315;28;20204;-53
2021/01/19 09:52:31;;;;;;;3.95;3.33;;;4.00;99.90;;;;;;5074125;28;20184;-52
2021/01/19 09:55:09;;;;;;;7.10;4.05;;;4.00;99.90;;;;;;5074535;28;20205;-49
2021/01/19 09:57:37;;;;;;;4.47;4.07;;;4.00;99.90;;;;;;5073022;28;20196;-55
2021/01/19 10:00:07;;;;;;;7.85;5.07;;;4.00;99.90;;;;;;5074371;28;20208;-49
2021/01/19 10:02:39;;;;;;;3.08;2.53;;;4.10;99.90;;;;;;5074822;28;20179;-53
2021/01/19 10:05:07;;;;;;;4.30;3.45;;;4.00;99.90;;;;;;5074869;28;20203;-51
2021/01/19 10:07:36;;;;;;;3.85;3.45;;;4.00;99.90;;;;;;5074731;28;20218;-55
2021/01/19 10:10:09;;;;;;;9.43;5.18;;;4.10;99.90;;;;;;5075395;28;20780;-50
2021/01/19 10:12:36;;;;;;;6.70;4.32;;;4.20;99.90;;;;;;5075362;28;20199;-48
2021/01/19 10:15:05;;;;;;;5.93;3.50;;;4.10;99.90;;;;;;5075599;28;20196;-48
2021/01/19 10:17:34;;;;;;;5.60;3.92;;;4.00;99.90;;;;;;5073290;28;20195;-49
2021/01/19 10:20:15;;;;;;;3.28;2.88;;;4.00;99.90;;;;;;5074519;28;20208;-50
2021/01/19 10:22:45;;;;;;;11.35;5.80;;;4.00;99.90;;;;;;5075357;28;20543;-50
2021/01/19 10:25:24;;;;;;;3.70;3.40;;;4.00;99.90;;;;;;5075529;28;20271;-51
2021/01/19 10:27:56;;;;;;;3.30;2.85;;;4.00;99.90;;;;;;5075412;28;20199;-49
2021/01/19 10:30:28;;;;;;;4.47;3.20;;;4.00;99.90;;;;;;5075542;28;20219;-48
2021/01/19 10:32:55;;;;;;;5.38;3.08;;;4.00;99.90;;;;;;5074981;28;20191;-50
2021/01/19 10:35:28;;;;;;;3.47;2.83;;;4.00;99.90;;;;;;5074053;28;20179;-49
2021/01/19 10:37:59;;;;;;;4.45;3.85;;;4.10;99.90;;;;;;5073772;28;20291;-50
2021/01/19 10:40:27;;;;;;;2.80;2.50;;;4.30;99.90;;;;;;5073986;28;20200;-49
2021/01/19 10:42:54;;;;;;;3.05;2.28;;;4.30;99.90;;;;;;5074068;28;20592;-52
2021/01/19 10:45:30;;;;;;;4.55;3.25;;;4.20;99.90;;;;;;5073852;28;20192;-50
2021/01/19 10:47:59;;;;;;;4.60;3.80;;;4.20;99.90;;;;;;5073501;28;20200;-48
2021/01/19 10:50:29;;;;;;;10.35;4.53;;;4.20;99.90;;;;;;5073583;28;20278;-50
2021/01/19 10:52:59;;;;;;;3.55;3.10;;;4.10;99.90;;;;;;5073462;28;20621;-51
2021/01/19 10:55:30;;;;;;;5.78;3.10;;;4.10;99.90;;;;;;5073230;28;20180;-48
2021/01/19 10:57:59;;;;;;;5.63;3.03;;;4.00;99.90;;;;;;5073180;28;20180;-52
2021/01/19 11:00:27;;;;;;;4.30;3.88;;;4.00;99.90;;;;;;5073542;28;20208;-55
2021/01/19 11:02:55;;;;;;;6.93;3.95;;;4.00;99.90;;;;;;5073106;28;20287;-49
2021/01/19 11:05:23;;;;;;;4.57;3.25;;;4.00;99.90;;;;;;5073369;28;20187;-51
2021/01/19 11:07:51;;;;;;;6.85;2.88;;;3.90;99.90;;;;;;5073063;28;20640;-48
2021/01/19 11:10:21;;;;;;;5.43;3.58;;;3.80;99.90;;;;;;5073145;28;20208;-53
2021/01/19 11:12:52;;;;;;;2.92;2.22;;;3.70;99.90;;;;;;5073452;28;20181;-49
2021/01/19 11:15:19;;;;;;;2.60;2.08;;;3.60;99.90;;;;;;5073129;28;20180;-47
2021/01/19 11:17:48;;;;;;;3.95;3.60;;;3.50;99.90;;;;;;5073412;28;20683;-52
2021/01/19 11:20:17;;;;;;;4.22;3.17;;;3.50;99.90;;;;;;5073538;28;20471;-47
2021/01/19 11:22:45;;;;;;;9.18;3.30;;;3.50;99.90;;;;;;5072848;28;20183;-47
2021/01/19 11:25:14;;;;;;;4.30;3.20;;;3.40;99.90;;;;;;5073670;28;20597;-52
2021/01/19 11:27:42;;;;;;;3.20;2.67;;;3.40;99.90;;;;;;5073021;28;20199;-49
2021/01/19 11:30:11;;;;;;;5.43;3.60;;;3.30;99.90;;;;;;5073008;28;20196;-48
2021/01/19 11:32:38;;;;;;;4.28;2.50;;;3.10;99.90;;;;;;5072842;28;20188;-53
2021/01/19 11:35:06;;;;;;;3.63;2.80;;;3.10;99.90;;;;;;5072743;28;20184;-48
2021/01/19 11:37:33;;;;;;;2.85;2.00;;;3.00;99.90;;;;;;5073103;28;20180;-51
2021/01/19 11:40:00;;;;;;;3.05;2.15;;;3.00;99.90;;;;;;5072540;28;20561;-50
2021/01/19 11:42:27;;;;;;;5.32;3.20;;;3.00;99.90;;;;;;5072583;28;20640;-55
2021/01/19 11:44:55;;;;;;;2.25;1.48;;;2.90;99.90;;;;;;5072578;28;20228;-46
2021/01/19 11:47:22;;;;;;;2.97;2.20;;;2.80;99.90;;;;;;5071090;28;20199;-49
2021/01/19 11:49:50;;;;;;;5.13;2.25;;;2.70;99.90;;;;;;5072310;28;20196;-54
2021/01/19 11:52:17;;;;;;;2.35;1.67;;;2.50;99.90;;;;;;5072542;28;20176;-53
2021/01/19 11:54:45;;;;;;;4.40;3.17;;;2.40;99.90;;;;;;5072418;28;20184;-51
2021/01/19 11:57:12;;;;;;;2.08;1.88;;;2.30;99.90;;;;;;5073786;28;20551;-53
2021/01/19 11:59:40;;;;;;;2.17;1.58;;;2.20;99.90;;;;;;5072831;28;20184;-57
2021/01/19 12:02:08;;;;;;;3.65;3.30;;;2.20;99.90;;;;;;5072994;28;20212;-52
2021/01/19 12:04:37;;;;;;;2.95;2.42;;;2.00;99.90;;;;;;5073279;28;20186;-51
2021/01/19 12:07:05;;;;;;;2.88;1.85;;;1.80;99.90;;;;;;5072854;28;20586;-50
2021/01/19 12:09:33;;;;;;;2.33;2.03;;;1.70;99.90;;;;;;5072781;28;20200;-48
2021/01/19 12:12:00;;;;;;;4.40;3.20;;;1.70;99.90;;;;;;5072488;28;20757;-49
2021/01/19 12:14:27;;;;;;;4.05;3.25;;;1.60;99.90;;;;;;5073059;28;20176;-56
2021/01/19 12:16:55;;;;;;;3.53;2.42;;;1.60;99.90;;;;;;5072284;28;20180;-51
2021/01/19 12:19:25;;;;;;;3.17;2.55;;;1.60;99.90;;;;;;5072320;28;20219;-51
2021/01/19 12:21:53;;;;;;;4.30;3.17;;;1.70;99.90;;;;;;5072414;28;20200;-49
2021/01/19 12:24:21;;;;;;;6.32;2.35;;;1.60;99.90;;;;;;5072385;28;20191;-50
2021/01/19 12:26:50;;;;;;;4.80;2.53;;;1.60;99.90;;;;;;5072320;28;20211;-51
2021/01/19 12:29:18;;;;;;;3.10;1.92;;;1.70;99.90;;;;;;5072354;28;20589;-56
2021/01/19 12:31:47;;;;;;;4.63;2.50;;;1.70;99.90;;;;;;5072180;28;20211;-54
2021/01/19 12:34:15;;;;;;;3.83;2.00;;;1.70;99.90;;;;;;5072478;28;20177;-53
2021/01/19 12:36:43;;;;;;;3.47;2.53;;;1.60;99.90;;;;;;5072164;28;20257;-52
2021/01/19 12:39:10;;;;;;;2.30;1.75;;;1.70;99.90;;;;;;5073141;28;20702;-52
2021/01/19 12:41:37;;;;;;;4.15;2.55;;;1.60;99.90;;;;;;5076409;28;20214;-55
2021/01/19 12:44:05;;;;;;;4.10;2.83;;;1.60;99.90;;;;;;5076995;28;20279;-51
2021/01/19 12:46:32;;;;;;;3.85;2.97;;;1.60;99.90;;;;;;5078910;28;20177;-55
2021/01/19 12:49:00;;;;;;;4.03;1.95;;;1.70;99.90;;;;;;5078858;28;20192;-52
2021/01/19 12:51:27;;;;;;;4.28;2.75;;;1.60;99.90;;;;;;5079140;28;20551;-50
2021/01/19 12:53:56;;;;;;;2.78;2.05;;;1.60;99.90;;;;;;5078157;28;20209;-50
2021/01/19 12:56:23;;;;;;;2.67;2.45;;;1.60;99.90;;;;;;5080361;28;20240;-52
2021/01/19 12:58:51;;;;;;;1.95;1.50;;;1.50;99.90;;;;;;5077728;28;20180;-50
2021/01/19 13:01:19;;;;;;;2.33;2.13;;;1.50;99.90;;;;;;5078502;28;20207;-49
2021/01/19 13:03:46;;;;;;;2.30;1.45;;;1.60;99.90;;;;;;5077693;28;20669;-56
2021/01/19 13:06:14;;;;;;;2.25;1.80;;;1.60;99.90;;;;;;5075391;28;20195;-57
2021/01/19 13:08:41;;;;;;;3.85;2.55;;;1.70;99.90;;;;;;5077796;28;20208;-55
2021/01/19 13:11:09;;;;;;;3.42;3.13;;;1.60;99.90;;;;;;5076187;28;20772;-54
2021/01/19 13:13:37;;;;;;;2.92;2.72;;;1.70;99.90;;;;;;5077242;28;20633;-54
2021/01/19 13:16:05;;;;;;;4.68;1.83;;;1.80;99.90;;;;;;5077499;28;20188;-56
2021/01/19 13:18:32;;;;;;;1.85;1.60;;;1.80;99.90;;;;;;5077361;28;20721;-54
2021/01/19 13:21:01;;;;;;;2.83;1.98;;;1.70;99.90;;;;;;5076791;28;20253;-56
2021/01/19 13:23:29;;;;;;;2.28;2.08;;;1.70;99.90;;;;;;5076769;28;20177;-51
2021/01/19 13:25:56;;;;;;;2.33;2.13;;;1.60;99.90;;;;;;5077242;28;20180;-55
2021/01/19 13:28:24;;;;;;;2.30;1.52;;;1.60;99.90;;;;;;5076391;28;20741;-55
2021/01/19 13:30:51;;;;;;;2.15;1.63;;;1.60;99.90;;;;;;5078307;28;20208;-54
2021/01/19 13:33:18;;;;;;;2.00;1.90;;;1.70;99.90;;;;;;5078429;28;20590;-54
2021/01/19 13:35:48;;;;;;;4.75;1.98;;;1.70;99.90;;;;;;5077542;28;20219;-53
2021/01/19 13:38:16;;;;;;;2.63;2.42;;;1.80;99.90;;;;;;5078360;28;20177;-50
2021/01/19 13:40:43;;;;;;;2.50;1.80;;;1.80;99.90;;;;;;5081140;28;20211;-49
2021/01/19 13:43:10;;;;;;;2.67;2.47;;;1.80;99.90;;;;;;5078098;28;20195;-55
2021/01/19 13:45:38;;;;;;;3.50;3.03;;;1.80;99.90;;;;;;5078222;28;20207;-51
2021/01/19 13:48:05;;;;;;;3.13;2.47;;;1.90;99.90;;;;;;5077322;28;20196;-52
2021/01/19 13:50:33;;;;;;;4.40;3.17;;;1.90;99.90;;;;;;5078934;28;20266;-51
2021/01/19 13:53:00;;;;;;;2.92;2.63;;;1.90;99.90;;;;;;5078538;28;20179;-52
2021/01/19 13:55:27;;;;;;;5.88;3.10;;;1.80;99.90;;;;;;5074320;28;20187;-50
2021/01/19 13:57:54;;;;;;;2.55;2.17;;;1.80;99.90;;;;;;5074789;28;20673;-52
2021/01/19 14:00:22;;;;;;;3.30;2.80;;;1.80;99.90;;;;;;5074889;28;20207;-49
2021/01/19 14:02:51;;;;;;;3.28;2.50;;;1.70;99.90;;;;;;5074744;28;20587;-50
2021/01/19 14:05:18;;;;;;;2.03;1.58;;;1.80;99.90;;;;;;5070829;28;20604;-55
2021/01/19 14:07:45;;;;;;;2.83;2.22;;;1.80;99.90;;;;;;5075002;28;20192;-49
2021/01/19 14:10:13;;;;;;;3.63;2.83;;;1.80;99.90;;;;;;5075428;28;20582;-51
2021/01/19 14:12:40;;;;;;;2.17;2.00;;;1.90;99.90;;;;;;5074574;28;20656;-51
2021/01/19 14:15:09;;;;;;;2.38;2.17;;;1.80;99.90;;;;;;5074553;28;20735;-52
2021/01/19 14:17:36;;;;;;;5.70;2.63;;;1.90;99.90;;;;;;5074465;28;20186;-47
2021/01/19 14:20:06;;;;;;;5.80;3.67;;;1.90;99.90;;;;;;5074389;28;20610;-49
2021/01/19 14:22:34;;;;;;;2.72;2.40;;;1.80;99.90;;;;;;5074214;28;20176;-49
2021/01/19 14:25:01;;;;;;;2.90;2.28;;;1.80;99.90;;;;;;5074456;28;20600;-52
2021/01/19 14:27:28;;;;;;;4.32;2.78;;;1.90;99.90;;;;;;5074688;28;20210;-53
2021/01/19 14:29:55;;;;;;;3.03;2.75;;;1.90;99.90;;;;;;5074575;28;20200;-57
2021/01/19 14:32:23;;;;;;;3.75;2.47;;;1.90;99.90;;;;;;5074571;28;20176;-50
2021/01/19 14:34:51;;;;;;;3.85;3.45;;;1.90;99.90;;;;;;5074404;28;20176;-53
2021/01/19 14:37:29;;;;;;;4.18;2.90;;;1.90;99.90;;;;;;5074572;28;20164;-54
2021/01/19 14:39:57;;;;;;;2.40;2.15;;;2.00;99.90;;;;;;5074367;28;20204;-47
2021/01/19 14:42:24;;;;;;;4.20;3.00;;;1.90;99.90;;;;;;5074244;28;20853;-50
2021/01/19 14:44:52;;;;;;;3.75;3.17;;;1.90;99.90;;;;;;5074372;28;20200;-53
2021/01/19 14:47:20;;;;;;;2.90;2.60;;;2.00;99.90;;;;;;5074548;28;20195;-52
2021/01/19 14:49:47;;;;;;;2.97;2.30;;;2.00;99.90;;;;;;5074190;28;20290;-51
2021/01/19 14:52:15;;;;;;;2.70;2.50;;;2.00;99.90;;;;;;5074282;28;20196;-49
2021/01/19 14:54:49;;;;;;;3.63;3.17;;;2.00;99.90;;;;;;5074883;28;20184;-53
2021/01/19 14:57:16;;;;;;;4.32;3.90;;;2.00;99.90;;;;;;5074688;28;20175;-48
2021/01/19 14:59:43;;;;;;;3.38;2.90;;;2.00;99.90;;;;;;5073541;28;20665;-51
2021/01/19 15:02:11;;;;;;;3.47;3.17;;;2.00;99.90;;;;;;5073040;28;20192;-49
2021/01/19 15:04:38;;;;;;;2.50;2.30;;;2.10;99.90;;;;;;5072647;28;20206;-49
2021/01/19 15:07:06;;;;;;;4.60;3.13;;;2.10;99.90;;;;;;5074118;28;20180;-52
2021/01/19 15:09:35;;;;;;;4.15;3.85;;;2.00;99.90;;;;;;5073521;28;20580;-50
2021/01/19 15:12:05;;;;;;;2.05;1.90;;;2.00;99.90;;;;;;5073247;28;20222;-48
2021/01/19 15:14:34;;;;;;;3.88;3.13;;;2.10;99.90;;;;;;5074410;28;20198;-48
2021/01/19 15:17:03;;;;;;;2.80;2.60;;;2.10;99.90;;;;;;5074529;28;20177;-53
2021/01/19 15:19:31;;;;;;;2.78;2.30;;;2.10;99.90;;;;;;5074038;28;20189;-49
2021/01/19 15:22:00;;;;;;;1.83;1.73;;;2.10;99.90;;;;;;5074459;28;20203;-56
2021/01/19 15:24:28;;;;;;;3.63;1.88;;;2.10;99.90;;;;;;5074099;28;20222;-51
2021/01/19 15:26:56;;;;;;;6.75;3.15;;;2.10;99.90;;;;;;5074236;28;20188;-53
2021/01/19 15:29:24;;;;;;;4.50;3.22;;;2.20;99.90;;;;;;5066654;28;20205;-51
2021/01/19 15:31:51;;;;;;;2.80;2.50;;;2.20;99.90;;;;;;5052927;28;20216;-51
2021/01/19 15:34:20;;;;;;;4.15;3.30;;;2.20;99.90;;;;;;5054559;28;20236;-51
2021/01/19 15:36:47;;;;;;;3.80;3.47;;;2.20;99.90;;;;;;5059109;28;20193;-56
2021/01/19 15:39:14;;;;;;;4.15;3.75;;;2.20;99.90;;;;;;5061038;28;20174;-55
2021/01/19 15:41:42;;;;;;;4.10;3.70;;;2.20;99.90;;;;;;5055705;28;20213;-59
2021/01/19 15:47:01;;;;;;;4.05;3.63;;;2.20;99.90;;;;;;5174988;23;20598;-55
2021/01/19 15:49:31;;;;;;;3.75;1.85;;;2.20;99.90;;;;;;5033299;28;20194;-53
2021/01/19 15:52:00;;;;;;;6.45;2.60;;;2.30;99.90;;;;;;5040601;28;20217;-54
2021/01/19 15:54:27;;;;;;;5.30;3.58;;;2.20;99.90;;;;;;5052715;28;20191;-52
2021/01/19 15:56:55;;;;;;;3.50;3.20;;;2.30;99.90;;;;;;5052433;28;20200;-52
2021/01/19 15:59:23;;;;;;;3.75;3.45;;;2.30;99.90;;;;;;5052444;28;20173;-49
2021/01/19 16:01:51;;;;;;;3.40;2.97;;;2.30;99.90;;;;;;5047490;28;20715;-48
2021/01/19 16:04:19;;;;;;;7.18;3.90;;;2.30;99.90;;;;;;5015578;28;20209;-50
2021/01/19 16:06:46;;;;;;;11.07;4.60;;;2.30;99.90;;;;;;5033684;28;20174;-53
2021/01/19 16:09:14;;;;;;;6.40;5.90;;;2.30;99.90;;;;;;5033928;28;20197;-52
2021/01/19 16:11:42;;;;;;;7.63;5.32;;;2.30;99.90;;;;;;5034097;28;20205;-57
2021/01/19 16:14:10;;;;;;;6.35;5.10;;;2.40;99.90;;;;;;5032630;28;20236;-54
2021/01/19 16:16:37;;;;;;;6.22;5.63;;;2.40;99.90;;;;;;5032685;28;20177;-54
2021/01/19 16:19:06;;;;;;;10.52;7.80;;;2.40;99.90;;;;;;5032291;28;20638;-48
2021/01/19 16:21:34;;;;;;;9.88;6.10;;;2.40;99.90;;;;;;5032379;28;20213;-52
2021/01/19 16:24:03;;;;;;;6.28;4.65;;;2.40;99.90;;;;;;5032269;28;20188;-56